Time;durP1;ratioP1;P1;durP2;ratioP2;P2;SDS_P1;SDS_P2;PMS_P1;PMS_P2;Temp;Humidity;BMP_temperature;BMP_pressure;BME280_temperature;BME280_humidity;BME280_pressure;Samples;Min_cycle;Max_cycle;Signal;HPM_P1;HPM_P2
2023/08/23 00:02:22;;;;;;;;;;;28.10;67.90;;;28.34;42.54;98923.34;4901091;28;124164;-79
2023/08/23 00:05:13;;;;;;;;;;;28.10;68.00;;;28.33;42.33;98916.06;4902340;28;125578;-78
2023/08/23 00:07:39;;;;;;;;;;;28.10;68.10;;;28.32;42.17;98914.47;4905055;28;120351;-79
2023/08/23 00:10:29;;;;;;;;;;;28.00;68.00;;;28.29;42.45;98915.31;4976682;28;119714;-78
2023/08/23 00:13:16;;;;;;;;;;;28.00;68.00;;;28.25;42.49;98903.22;4986140;28;124203;-79
2023/08/23 00:15:50;;;;;;;;;;;28.00;68.10;;;28.25;42.65;98901.16;4999043;28;123770;-79
2023/08/23 00:18:16;;;;;;;;;;;28.00;68.30;;;28.26;42.46;98896.28;4995058;28;119783;-79
2023/08/23 00:20:51;;;;;;;;;;;28.00;68.30;;;28.23;42.65;98899.97;4990590;28;118703;-78
2023/08/23 00:23:17;;;;;;;;;;;28.00;68.50;;;28.20;42.72;98899.59;4990349;28;124198;-79
2023/08/23 00:25:50;;;;;;;;;;;26.90;67.80;;;28.19;42.79;98897.22;4983807;28;124804;-78
2023/08/23 00:28:19;;;;;;;;;;;27.90;68.60;;;28.19;42.83;98906.53;4971522;28;119210;-79
2023/08/23 00:31:29;;;;;;;;;;;27.90;68.70;;;28.16;42.85;98903.75;4990330;28;117540;-79
2023/08/23 00:34:46;;;;;;;;;;;27.90;68.80;;;28.09;42.94;98906.69;4980564;28;124069;-78
2023/08/23 00:37:21;;;;;;;;;;;27.80;68.80;;;28.08;42.80;98907.94;5007163;28;126515;-78
2023/08/23 00:39:54;;;;;;;;;;;27.80;69.00;;;28.04;43.29;98907.97;4992378;28;119435;-79
2023/08/23 00:42:20;;;;;;;;;;;27.80;69.10;;;28.03;43.47;98902.72;5012224;28;118635;-78
2023/08/23 00:44:52;;;;;;;;;;;27.80;69.20;;;28.01;43.43;98903.16;4993726;28;124145;-78
2023/08/23 00:47:43;;;;;;;;;;;27.80;69.30;;;27.96;43.20;98900.78;5000113;28;123636;-78
2023/08/23 00:50:18;;;;;;;;;;;27.70;69.30;;;27.94;43.60;98894.72;5002971;28;119378;-78
2023/08/23 00:52:53;;;;;;;;;;;27.70;69.50;;;27.93;43.54;98893.13;4976128;28;118106;-78
2023/08/23 00:55:25;;;;;;;;;;;27.70;69.70;;;27.91;43.70;98889.91;4970756;28;123418;-78
2023/08/23 00:57:52;;;;;;;;;;;27.70;69.90;;;27.90;43.45;98885.47;4968381;28;122483;-78
2023/08/23 01:00:31;;;;;;;;;;;27.70;69.90;;;27.87;43.64;98887.13;4970418;28;121000;-78
2023/08/23 01:03:53;;;;;;;;;;;27.60;70.00;;;27.83;43.88;98882.72;4988480;28;118472;-78
2023/08/23 01:06:45;;;;;;;;;;;27.60;70.20;;;27.74;44.17;98880.38;4986143;28;124153;-78
2023/08/23 01:09:49;;;;;;;;;;;27.50;70.40;;;27.66;44.06;98891.03;4978200;28;123310;-79
2023/08/23 01:16:19;;;;;;;;;;;27.40;70.80;;;27.48;44.36;98885.56;4976181;28;119285;-79
2023/08/23 01:18:53;;;;;;;;;;;27.40;70.90;;;27.47;44.98;98900.19;5005546;28;125142;-78
2023/08/23 01:21:48;;;;;;;;;;;27.30;71.10;;;27.44;45.10;98901.84;5000468;28;124244;-78
2023/08/23 01:24:30;;;;;;;;;;;27.30;71.20;;;27.38;44.89;98909.25;5003519;28;118794;-79
2023/08/23 01:26:56;;;;;;;;;;;27.20;71.40;;;27.37;44.83;98909.66;4993973;28;118748;-79
2023/08/23 01:29:55;;;;;;;;;;;27.20;71.60;;;27.35;45.08;98906.41;5004448;28;124180;-79
2023/08/23 01:32:48;;;;;;;;;;;27.20;71.80;;;27.30;44.88;98900.00;4978860;28;124088;-79
2023/08/23 01:35:52;;;;;;;;;;;27.10;71.80;;;27.26;45.30;98910.56;4994713;28;119921;-79
2023/08/23 01:38:32;;;;;;;;;;;27.10;72.00;;;27.25;45.48;98906.13;5008127;28;118082;-78
2023/08/23 01:41:01;;;;;;;;;;;27.00;72.10;;;27.25;45.11;98906.13;4991548;28;124381;-78
2023/08/23 01:43:28;;;;;;;;;;;27.00;72.30;;;27.25;45.18;98906.13;4979054;28;122768;-79
2023/08/23 01:45:57;;;;;;;;;;;27.00;72.40;;;27.22;45.75;98906.19;5008209;28;119209;-79
2023/08/23 01:48:25;;;;;;;;;;;28.70;74.00;;;27.16;45.76;98905.00;5006870;28;118699;-79
2023/08/23 01:50:54;;;;;;;;;;;26.90;72.70;;;27.14;45.89;98911.09;5004932;28;124015;-78
2023/08/23 01:53:48;;;;;;;;;;;26.90;72.80;;;27.12;45.51;98909.91;4993619;28;123694;-79
2023/08/23 01:56:42;;;;;;;;;;;26.90;73.00;;;27.08;45.95;98907.09;4972849;28;120306;-78
2023/08/23 01:59:30;;;;;;;;;;;26.90;73.00;;;27.04;45.84;98912.81;4966633;28;119447;-79
2023/08/23 02:02:08;;;;;;;;;;;26.90;73.20;;;27.01;45.94;98919.34;4975520;28;124419;-79
2023/08/23 02:05:12;;;;;;;;;;;26.80;73.30;;;26.96;46.26;98911.28;4979305;28;123677;-79
2023/08/23 02:07:49;;;;;;;;;;;26.80;73.50;;;26.90;46.00;98917.84;4989328;28;119017;-79
2023/08/23 02:10:25;;;;;;;;;;;26.70;73.60;;;26.82;46.52;98915.06;4997322;28;118135;-78
2023/08/23 02:13:04;;;;;;;;;;;26.70;73.90;;;26.75;46.73;98912.28;4972623;28;124213;-78
2023/08/23 02:15:33;;;;;;;;;;;26.60;74.10;;;26.67;47.12;98905.88;5000303;28;123925;-78
2023/08/23 02:18:06;;;;;;;;;;;26.50;74.20;;;26.62;47.15;98908.34;4968488;28;118208;-79
2023/08/23 02:24:01;;;;;;;;;;;26.50;74.60;;;26.55;47.29;98914.09;4982715;28;124929;-78
2023/08/23 02:33:21;;;;;;;;;;;26.30;75.30;;;26.42;47.67;98903.22;4973573;28;118909;-78
2023/08/23 02:35:47;;;;;;;;;;;26.30;75.40;;;26.43;47.79;98904.03;5006824;28;124425;-78
2023/08/23 02:38:30;;;;;;;;;;;26.30;75.70;;;26.41;47.56;98907.28;4999355;28;123705;-78
2023/08/23 02:44:32;;;;;;;;;;;26.20;75.90;;;26.39;47.48;98909.75;4997624;28;118583;-78
2023/08/23 02:49:45;;;;;;;;;;;26.20;76.20;;;26.32;47.65;98912.63;4998760;28;122784;-78
2023/08/23 02:53:19;;;;;;;;;;;26.10;76.40;;;26.25;48.41;98907.03;4988233;28;119997;-78
2023/08/23 02:55:48;;;;;;;;;;;26.10;76.60;;;26.20;48.42;98898.97;4944183;28;119867;-78
2023/08/23 02:58:22;;;;;;;;;;;26.00;76.80;;;26.17;48.23;98889.28;4905361;28;123048;-78
2023/08/23 03:00:48;;;;;;;;;;;26.00;77.00;;;26.16;48.13;98893.31;4904095;28;123936;-78
2023/08/23 03:03:21;;;;;;;;;;;26.00;77.20;;;26.18;48.56;98884.41;4905363;28;119209;-79
2023/08/23 03:06:31;;;;;;;;;;;26.00;77.40;;;26.16;48.55;98886.84;4907990;28;118540;-79
2023/08/23 03:09:07;;;;;;;;;;;26.00;77.50;;;26.15;48.67;98888.06;4907961;28;124629;-78
2023/08/23 03:11:33;;;;;;;;;;;25.90;77.60;;;26.17;48.78;98894.94;4896111;28;124275;-79
2023/08/23 03:14:21;;;;;;;;;;;25.90;77.80;;;26.17;48.40;98886.44;4908015;28;119303;-78
2023/08/23 03:17:21;;;;;;;;;;;25.90;77.90;;;26.18;48.78;98904.22;4894999;28;118423;-78
2023/08/23 03:19:50;;;;;;;;;;;25.90;78.00;;;26.17;48.37;98894.94;4894773;28;124713;-78
2023/08/23 03:22:19;;;;;;;;;;;25.90;77.90;;;26.17;48.27;98908.28;4887076;28;123689;-79
2023/08/23 03:25:32;;;;;;;;;;;25.90;78.10;;;26.12;48.71;98909.53;4906658;28;118729;-78
2023/08/23 03:28:34;;;;;;;;;;;25.90;78.10;;;26.07;48.87;98909.16;4899741;28;118555;-78
2023/08/23 03:31:38;;;;;;;;;;;25.80;78.20;;;26.00;48.56;98912.84;4955242;28;123991;-79
2023/08/23 03:34:12;;;;;;;;;;;25.80;78.30;;;25.99;49.22;98916.91;4984422;28;123717;-79
2023/08/23 03:39:37;;;;;;;;;;;25.70;78.60;;;25.87;48.96;98918.19;4988258;28;119802;-79
2023/08/23 03:42:03;;;;;;;;;;;25.70;78.80;;;25.82;49.25;98917.75;4956854;28;122748;-78
2023/08/23 03:48:08;;;;;;;;;;;25.60;79.20;;;25.71;49.62;98898.00;4968451;28;121043;-78
2023/08/23 03:50:46;;;;;;;;;;;25.50;79.60;;;25.65;49.60;98900.47;4947352;28;119801;-78
2023/08/23 03:53:52;;;;;;;;;;;25.50;79.70;;;25.59;49.72;98890.78;4953835;28;124798;-78
2023/08/23 03:57:00;;;;;;;;;;;25.50;79.80;;;25.57;49.78;98893.22;4941269;28;123371;-78
2023/08/23 03:59:26;;;;;;;;;;;25.40;79.90;;;25.55;50.13;98902.13;4955449;28;119670;-78
2023/08/23 04:02:26;;;;;;;;;;;25.40;80.10;;;25.54;50.19;98900.50;4944879;28;117750;-78
2023/08/23 04:04:52;;;;;;;;;;;25.40;80.30;;;25.56;50.36;98903.75;4944507;28;124730;-78
2023/08/23 04:07:19;;;;;;;;;;;25.40;80.50;;;25.59;49.95;98904.16;4919889;28;123931;-78
2023/08/23 04:09:48;;;;;;;;;;;25.30;80.50;;;25.61;50.23;98907.38;4930749;28;119450;-78
2023/08/23 04:12:39;;;;;;;;;;;25.30;80.60;;;25.59;49.97;98904.94;4926870;28;118599;-78
2023/08/23 04:15:29;;;;;;;;;;;25.30;80.80;;;25.57;50.34;98905.34;4930872;28;124622;-78
2023/08/23 04:18:41;;;;;;;;;;;25.30;81.00;;;25.54;50.35;98911.84;4925433;28;123900;-78
2023/08/23 04:21:07;;;;;;;;;;;25.30;81.10;;;25.57;50.11;98913.03;4885043;28;120078;-78
2023/08/23 04:24:05;;;;;;;;;;;25.30;81.30;;;25.52;50.13;98902.97;4883947;28;118709;-78
2023/08/23 04:26:31;;;;;;;;;;;25.30;81.40;;;25.51;50.44;98907.00;4886566;28;124073;-79
2023/08/23 04:29:06;;;;;;;;;;;25.30;81.50;;;25.52;50.45;98911.47;4900021;28;123816;-79
2023/08/23 04:35:04;;;;;;;;;;;25.30;81.60;;;25.49;50.23;98920.75;4977198;28;119607;-78
2023/08/23 04:37:40;;;;;;;;;;;25.20;81.70;;;25.52;50.40;98907.78;4952989;28;123746;-79
2023/08/23 04:40:40;;;;;;;;;;;25.20;81.80;;;25.51;50.59;98921.16;4956981;28;124231;-79
2023/08/23 04:43:06;;;;;;;;;;;25.20;82.00;;;25.54;50.64;98909.00;4971210;28;119436;-78
2023/08/23 04:45:37;;;;;;;;;;;25.20;82.00;;;25.56;50.23;98917.88;4978284;28;119656;-78
2023/08/23 04:48:07;;;;;;;;;;;25.20;82.10;;;25.57;50.55;98919.50;4980991;28;124641;-79
2023/08/23 04:54:01;;;;;;;;;;;25.30;82.30;;;25.48;50.87;98924.78;4970830;28;119877;-79
2023/08/23 04:57:01;;;;;;;;;;;25.20;82.50;;;25.44;50.52;98921.19;4985854;28;119017;-79
2023/08/23 04:59:32;;;;;;;;;;;25.20;82.60;;;25.39;50.94;98918.78;4987250;28;124724;-78
2023/08/23 05:02:07;;;;;;;;;;;25.10;82.60;;;25.35;51.06;98918.78;4966952;28;122732;-78
2023/08/23 05:04:43;;;;;;;;;;;25.10;83.40;;;25.28;51.26;98923.66;4989075;28;119512;-79
2023/08/23 05:07:15;;;;;;;;;;;25.10;82.90;;;25.29;51.40;98925.28;4952060;28;117692;-79
2023/08/23 05:09:44;;;;;;;;;;;25.10;83.00;;;25.28;50.97;98924.47;4982936;28;123489;-79
2023/08/23 05:12:38;;;;;;;;;;;25.10;83.20;;;25.26;51.03;98926.09;4976205;28;124016;-79
2023/08/23 05:15:23;;;;;;;;;;;25.00;83.30;;;25.27;51.20;98924.88;4972439;28;119780;-79
2023/08/23 05:18:12;;;;;;;;;;;25.10;83.50;;;25.29;51.17;98931.72;4970016;28;119072;-79
2023/08/23 05:21:28;;;;;;;;;;;25.00;83.60;;;25.29;51.29;98923.25;4972393;28;122973;-79
2023/08/23 05:24:39;;;;;;;;;;;25.00;83.70;;;25.31;50.97;98917.19;4949611;28;123442;-79
2023/08/23 05:30:11;;;;;;;;;;;25.00;83.90;;;25.35;51.24;98923.63;4911602;28;119317;-79
2023/08/23 05:32:59;;;;;;;;;;;25.10;84.10;;;25.39;51.33;98929.25;4901585;28;122450;-80
2023/08/23 05:36:26;;;;;;;;;;;25.10;84.10;;;25.41;51.21;98924.00;4904550;28;123920;-79
2023/08/23 05:38:28;;;;;;;;;;;25.10;84.20;;;25.46;51.24;98926.41;4903691;28;120803;-79
2023/08/23 05:40:55;;;;;;;;;;;25.10;84.90;;;25.49;51.24;98926.41;4886781;28;119477;-79
2023/08/23 05:43:31;;;;;;;;;;;25.10;84.30;;;25.54;50.94;98920.31;4887441;28;124766;-79
2023/08/23 05:46:03;;;;;;;;;;;25.20;84.30;;;25.57;50.90;98919.50;4909265;28;124079;-79
2023/08/23 05:54:45;;;;;;;;;;;25.20;84.40;;;25.66;50.43;98943.75;4894302;28;124631;-79
2023/08/23 05:57:57;;;;;;;;;;;25.30;84.40;;;25.66;50.56;98943.75;4900788;28;124029;-79
2023/08/23 06:00:33;;;;;;;;;;;25.30;84.60;;;25.66;50.85;98938.88;4912017;28;118788;-79
2023/08/23 06:04:10;;;;;;;;;;;25.30;84.50;;;25.68;50.55;98938.44;4916796;28;119342;-79
2023/08/23 06:06:51;;;;;;;;;;;25.30;84.50;;;25.73;50.79;98940.84;4908120;28;124681;-79
2023/08/23 06:09:56;;;;;;;;;;;25.30;84.40;;;25.76;50.64;98948.53;4898302;28;124163;-78
2023/08/23 06:12:51;;;;;;;;;;;24.30;83.50;;;25.80;50.60;98946.50;4899445;28;119836;-79
2023/08/23 06:15:25;;;;;;;;;;;25.40;84.40;;;25.83;50.31;98947.69;4895263;28;118271;-79
2023/08/23 06:18:09;;;;;;;;;;;25.40;84.40;;;25.84;50.57;98947.31;4908582;28;123660;-79
2023/08/23 06:20:49;;;;;;;;;;;25.40;84.40;;;25.88;50.49;98945.28;4909343;28;123695;-78
2023/08/23 06:23:22;;;;;;;;;;;25.50;84.60;;;25.95;50.13;98944.41;4893580;28;119498;-79
2023/08/23 06:26:23;;;;;;;;;;;25.50;84.60;;;26.00;50.08;98941.16;4908399;28;119027;-79
2023/08/23 06:29:09;;;;;;;;;;;25.60;84.60;;;26.08;50.27;98936.25;4880052;28;123919;-78
2023/08/23 06:31:46;;;;;;;;;;;25.60;84.50;;;26.15;50.26;98936.22;4859898;28;124303;-80
2023/08/23 06:34:13;;;;;;;;;;;25.70;84.50;;;26.21;50.20;98945.88;4868399;28;120766;-79
2023/08/23 06:39:59;;;;;;;;;;;25.80;84.40;;;26.32;49.53;98946.59;4889569;28;123115;-79
2023/08/23 06:42:29;;;;;;;;;;;25.90;84.30;;;26.43;49.61;98941.66;4884688;28;124170;-79
2023/08/23 06:44:55;;;;;;;;;;;25.90;84.40;;;26.47;49.41;98947.31;4910028;28;119454;-79
2023/08/23 06:47:21;;;;;;;;;;;26.00;84.40;;;26.56;49.53;98942.00;4916784;28;117631;-79
2023/08/23 06:49:56;;;;;;;;;;;26.00;84.30;;;26.65;49.40;98947.19;4899006;28;124376;-79
2023/08/23 06:52:57;;;;;;;;;;;26.10;84.20;;;26.73;49.18;98942.28;4897549;28;123562;-79
2023/08/23 06:55:39;;;;;;;;;;;26.20;83.90;;;26.79;48.54;98949.94;4874375;28;119614;-79
2023/08/23 06:58:05;;;;;;;;;;;26.30;83.70;;;26.86;48.44;98947.00;4885353;28;117450;-79
2023/08/23 07:00:56;;;;;;;;;;;26.30;83.40;;;26.90;48.40;98934.84;4889616;28;124656;-79
2023/08/23 07:03:35;;;;;;;;;;;26.40;83.20;;;26.92;48.76;98938.88;4892169;28;124633;-79
2023/08/23 07:06:07;;;;;;;;;;;26.50;83.20;;;26.96;48.77;98941.66;4961707;28;120010;-79
2023/08/23 07:08:33;;;;;;;;;;;26.50;83.10;;;27.03;48.59;98938.78;4949367;28;118763;-78
2023/08/23 07:14:23;;;;;;;;;;;26.60;83.10;;;27.08;48.24;98941.13;4967042;28;123727;-79
2023/08/23 07:16:52;;;;;;;;;;;26.60;82.60;;;27.05;48.31;98936.31;4947799;28;118139;-79
2023/08/23 07:19:24;;;;;;;;;;;26.60;82.40;;;27.09;47.99;98948.44;4944345;28;118379;-80
2023/08/23 07:22:03;;;;;;;;;;;26.60;82.30;;;27.14;47.89;98945.13;4948673;28;124794;-79
2023/08/23 07:25:08;;;;;;;;;;;26.70;82.40;;;27.23;47.85;98953.97;4966349;28;123616;-78
2023/08/23 07:28:18;;;;;;;;;;;26.70;82.40;;;27.28;47.56;98945.00;4994738;28;121197;-79
2023/08/23 07:31:00;;;;;;;;;;;25.80;81.60;;;27.34;47.32;98941.72;4973148;28;120061;-79
2023/08/23 07:33:47;;;;;;;;;;;26.70;81.80;;;27.43;47.26;98950.50;4983364;28;123705;-78
2023/08/23 07:37:00;;;;;;;;;;;26.90;81.80;;;27.48;46.75;98942.34;4969869;28;124098;-78
2023/08/23 07:39:55;;;;;;;;;;;27.00;81.20;;;27.57;46.47;98950.38;4986233;28;119720;-78
2023/08/23 07:42:30;;;;;;;;;;;27.00;80.90;;;27.69;46.49;98951.84;4973216;28;118834;-78
2023/08/23 07:45:03;;;;;;;;;;;27.10;80.70;;;27.80;46.40;98951.69;4982176;28;123500;-78
2023/08/23 07:54:22;;;;;;;;;;;27.40;80.10;;;28.05;45.65;98952.22;4985531;28;118348;-79
2023/08/23 07:56:57;;;;;;;;;;;27.50;79.70;;;28.10;45.57;98945.22;4964108;28;123196;-79
2023/08/23 07:59:24;;;;;;;;;;;27.60;79.40;;;28.19;45.31;98951.19;4957057;28;123963;-79
2023/08/23 08:01:56;;;;;;;;;;;27.60;79.30;;;28.28;45.16;98950.66;4967296;28;119245;-79
2023/08/23 08:04:32;;;;;;;;;;;27.70;79.10;;;28.34;45.10;98951.75;4964288;28;118340;-79
2023/08/23 08:07:23;;;;;;;;;;;27.80;78.90;;;28.40;45.03;98945.19;4968599;28;124178;-79
2023/08/23 08:09:57;;;;;;;;;;;27.90;78.80;;;28.45;44.80;98946.75;4980145;28;124325;-79
2023/08/23 08:12:23;;;;;;;;;;;27.90;78.40;;;28.48;44.74;98945.91;4963221;28;118541;-79
2023/08/23 08:17:46;;;;;;;;;;;28.00;78.30;;;28.51;44.85;98945.03;4956311;28;126793;-79
2023/08/23 08:20:28;;;;;;;;;;;28.00;78.30;;;28.52;44.65;98951.53;4965956;28;123999;-79
2023/08/23 08:23:33;;;;;;;;;;;28.10;78.10;;;28.52;44.62;98943.81;4954158;28;120704;-80
2023/08/23 08:26:10;;;;;;;;;;;28.10;77.90;;;28.54;44.62;98949.88;4942808;28;121256;-79
2023/08/23 08:28:58;;;;;;;;;;;28.10;77.70;;;28.55;44.48;98951.47;4980837;28;123521;-79
2023/08/23 08:31:28;;;;;;;;;;;28.20;77.50;;;28.62;44.50;98945.66;4969065;28;123512;-79
2023/08/23 08:34:20;;;;;;;;;;;28.20;77.50;;;28.65;44.56;98944.00;4986066;28;119343;-79
2023/08/23 08:36:52;;;;;;;;;;;28.20;77.50;;;28.72;43.88;98943.06;4967858;28;118781;-79
2023/08/23 08:39:33;;;;;;;;;;;28.30;77.40;;;28.76;44.31;98943.81;4987804;28;124157;-79
2023/08/23 08:42:29;;;;;;;;;;;28.30;77.30;;;28.84;44.47;98942.47;4997625;28;123976;-79
2023/08/23 08:44:57;;;;;;;;;;;28.40;77.30;;;28.88;43.90;98946.03;4997199;28;118576;-79
2023/08/23 08:48:19;;;;;;;;;;;28.40;76.90;;;28.89;43.87;98939.13;4988001;28;119202;-79
2023/08/23 08:51:04;;;;;;;;;;;28.40;76.80;;;28.92;43.62;98946.78;4986585;28;124348;-80
2023/08/23 08:53:34;;;;;;;;;;;28.40;76.90;;;28.91;43.39;98945.19;4992484;28;124189;-79
2023/08/23 08:56:16;;;;;;;;;;;28.40;76.50;;;28.95;43.66;98948.75;4971603;28;119697;-79
2023/08/23 09:09:10;;;;;;;;;;;28.60;75.20;;;29.06;42.80;98954.28;4948890;28;119966;-79
2023/08/23 09:11:42;;;;;;;;;;;28.60;75.10;;;29.10;42.48;98952.19;4930525;28;118955;-79
2023/08/23 09:14:52;;;;;;;;;;;28.60;75.00;;;29.14;42.67;98952.13;4948479;28;124360;-79
2023/08/23 09:17:32;;;;;;;;;;;28.60;75.10;;;29.18;41.72;98950.03;4943131;28;124065;-79
2023/08/23 09:19:59;;;;;;;;;;;28.70;74.00;;;29.19;41.70;98955.25;4931715;28;120252;-79
2023/08/23 09:22:33;;;;;;;;;;;28.70;73.70;;;29.21;41.63;98949.94;4928067;28;119489;-79
2023/08/23 09:25:08;;;;;;;;;;;28.70;73.70;;;29.25;41.55;98958.41;4947256;28;124463;-78
2023/08/23 09:27:43;;;;;;;;;;;28.70;73.50;;;29.28;41.68;98958.38;4930166;28;123793;-79
2023/08/23 09:33:46;;;;;;;;;;;28.80;73.60;;;29.39;41.63;98960.19;4851686;29;119766;-79
2023/08/23 09:36:47;;;;;;;;;;;28.90;73.50;;;29.41;41.88;98949.97;4843698;28;124519;-79
2023/08/23 09:42:46;;;;;;;;;;;29.00;73.20;;;29.49;41.95;98937.19;4901407;28;119788;-79
2023/08/23 09:48:56;;;;;;;;;;;29.00;73.00;;;29.52;41.48;98947.69;4976749;28;124691;-78
2023/08/23 09:55:45;;;;;;;;;;;29.00;72.70;;;29.50;41.22;98927.44;4962254;28;119615;-79
2023/08/23 09:59:03;;;;;;;;;;;29.00;72.20;;;29.49;40.98;98937.19;4967588;28;118689;-79
2023/08/23 10:01:30;;;;;;;;;;;29.00;72.20;;;29.49;41.06;98930.69;4882503;28;124513;-79
2023/08/23 10:04:06;;;;;;;;;;;28.00;71.20;;;29.50;40.91;98929.47;4877674;28;123435;-79
2023/08/23 10:10:01;;;;;;;;;;;29.10;72.10;;;29.68;41.16;98923.41;4883853;28;119894;-79
2023/08/23 10:12:28;;;;;;;;;;;29.20;72.30;;;29.76;40.92;98930.56;4869216;28;124023;-79
2023/08/23 10:15:28;;;;;;;;;;;29.20;71.70;;;29.81;40.86;98927.19;4872259;28;123759;-79
2023/08/23 10:18:02;;;;;;;;;;;29.30;71.50;;;29.88;40.34;98929.91;4872801;28;120192;-79
2023/08/23 10:21:02;;;;;;;;;;;29.40;72.30;;;29.94;40.44;98913.88;4899567;28;119435;-79
2023/08/23 10:23:56;;;;;;;;;;;29.50;71.40;;;29.98;40.31;98913.00;4890098;28;123174;-79
2023/08/23 10:30:18;;;;;;;;;;;29.50;70.90;;;30.05;39.72;98907.16;4891723;28;119941;-78
2023/08/23 10:32:48;;;;;;;;;;;29.50;70.20;;;30.09;39.50;98913.56;4912549;28;118900;-80
2023/08/23 10:35:54;;;;;;;;;;;29.60;70.00;;;30.13;39.84;98912.22;4912401;28;124681;-80
2023/08/23 10:38:32;;;;;;;;;;;29.70;69.90;;;30.17;38.66;98910.13;4967079;28;124211;-80
2023/08/23 10:44:54;;;;;;;;;;;29.70;68.80;;;30.25;39.06;98922.19;4963204;28;119392;-79
2023/08/23 10:47:25;;;;;;;;;;;29.80;68.80;;;30.33;38.30;98920.78;4939622;28;124337;-80
2023/08/23 10:50:12;;;;;;;;;;;29.80;68.20;;;30.39;38.36;98923.91;4936117;28;123889;-79
2023/08/23 10:52:39;;;;;;;;;;;29.90;68.10;;;30.41;38.68;98912.81;4945333;28;120848;-80
2023/08/23 10:55:30;;;;;;;;;;;30.00;67.90;;;30.43;38.30;98916.03;4934207;28;118476;-80
2023/08/23 10:58:18;;;;;;;;;;;30.00;67.70;;;30.50;38.36;98907.31;4963804;28;124599;-79
2023/08/23 11:01:04;;;;;;;;;;;30.10;67.90;;;30.59;38.54;98907.47;4962506;28;128378;-80
2023/08/23 11:03:37;;;;;;;;;;;30.10;68.40;;;30.70;38.54;98912.91;4960068;28;120714;-80
2023/08/23 11:06:15;;;;;;;;;;;30.20;68.50;;;30.80;38.70;98906.16;4942755;28;118629;-79
2023/08/23 11:12:18;;;;;;;;;;;30.40;68.40;;;30.93;38.05;98902.59;4945563;28;124067;-80
2023/08/23 11:14:50;;;;;;;;;;;30.40;67.20;;;31.00;37.62;98902.38;4929702;28;119597;-80
2023/08/23 11:17:37;;;;;;;;;;;30.50;67.10;;;31.11;37.84;98897.19;4945695;28;119216;-79
2023/08/23 11:20:13;;;;;;;;;;;30.60;67.00;;;31.22;37.25;98899.75;4930515;28;124149;-80
2023/08/23 11:22:40;;;;;;;;;;;30.60;66.70;;;31.33;37.67;98902.31;4956975;28;124198;-80
2023/08/23 11:25:07;;;;;;;;;;;30.80;67.20;;;31.40;37.15;98891.50;4953096;28;119361;-80
2023/08/23 11:27:42;;;;;;;;;;;30.80;66.90;;;31.50;37.14;98881.03;4983388;28;118478;-80
2023/08/23 11:30:29;;;;;;;;;;;30.90;66.60;;;31.54;37.01;98898.84;4978465;28;124172;-80
2023/08/23 11:36:27;;;;;;;;;;;31.00;65.80;;;31.60;36.53;98888.47;4979751;28;120264;-80
2023/08/23 11:39:06;;;;;;;;;;;31.10;64.90;;;31.67;36.82;98888.25;4968720;28;118830;-79
2023/08/23 11:42:17;;;;;;;;;;;;;;;;;;;;;
2023/08/23 11:44:29;;;;;;;;;;;31.20;64.90;;;31.95;35.75;98874.38;4966778;28;123714;-79
2023/08/23 11:47:19;;;;;;;;;;;31.40;64.60;;;32.08;35.67;98882.94;4954687;28;119979;-79
2023/08/23 11:53:16;;;;;;;;;;;31.60;64.00;;;32.35;35.87;98883.28;4974191;28;124826;-79
2023/08/23 11:55:57;;;;;;;;;;;31.70;64.00;;;32.45;35.34;98878.47;4953822;28;123096;-78
2023/08/23 11:58:33;;;;;;;;;;;31.80;63.50;;;32.52;34.95;98883.97;4958800;28;119750;-78
2023/08/23 12:01:31;;;;;;;;;;;31.90;63.30;;;32.61;35.58;98880.41;4969635;28;118878;-79
2023/08/23 12:04:10;;;;;;;;;;;32.00;63.50;;;32.70;34.99;98876.88;4985723;28;124758;-80
2023/08/23 12:06:37;;;;;;;;;;;32.00;62.80;;;32.76;35.13;98867.22;4985574;28;123913;-82
2023/08/23 12:09:11;;;;;;;;;;;32.10;62.70;;;32.85;34.93;98877.94;4969060;28;113177;-80
2023/08/23 12:12:37;;;;;;;;;;;32.20;62.90;;;32.93;34.52;98867.84;4987175;28;118766;-80
2023/08/23 12:15:31;;;;;;;;;;;32.30;62.10;;;33.03;34.52;98880.22;4995122;28;124542;-78
2023/08/23 12:18:00;;;;;;;;;;;32.40;62.20;;;33.11;34.21;98869.31;4985901;28;124001;-80
2023/08/23 12:21:08;;;;;;;;;;;32.50;62.00;;;33.09;34.13;98857.50;4982044;28;119205;-78
2023/08/23 12:23:34;;;;;;;;;;;32.50;61.30;;;33.21;34.13;98856.66;4928952;28;118730;-79
2023/08/23 12:26:01;;;;;;;;;;;32.70;61.50;;;33.33;34.10;98858.66;4942859;28;124952;-79
2023/08/23 12:28:59;;;;;;;;;;;32.70;61.10;;;33.46;34.00;98854.94;4921692;28;124284;-78
2023/08/23 12:31:31;;;;;;;;;;;32.80;61.30;;;33.58;33.19;98856.94;4865332;28;118770;-79
2023/08/23 12:34:57;;;;;;;;;;;32.90;60.30;;;33.67;33.52;98865.59;4859081;28;119153;-79
2023/08/23 12:37:32;;;;;;;;;;;33.10;60.30;;;33.74;33.07;98861.63;4848138;29;124201;-79
2023/08/23 12:40:01;;;;;;;;;;;33.20;59.90;;;33.82;33.24;98858.00;4849581;29;123754;-79
2023/08/23 12:42:49;;;;;;;;;;;33.20;59.80;;;33.86;33.21;98852.94;4873412;28;119480;-79
2023/08/23 12:51:59;;;;;;;;;;;33.40;59.30;;;33.88;32.94;98856.16;4918175;28;123400;-80
2023/08/23 12:55:18;;;;;;;;;;;33.40;59.10;;;33.92;32.83;98844.53;4907380;28;119395;-79
2023/08/23 12:57:56;;;;;;;;;;;33.40;59.00;;;34.01;32.78;98841.69;4923051;28;119427;-80
2023/08/23 13:07:32;;;;;;;;;;;33.60;58.50;;;34.33;32.54;98845.34;4913182;28;121178;-80
2023/08/23 13:10:07;;;;;;;;;;;33.70;58.20;;;34.46;32.37;98848.09;4905981;28;119494;-80
2023/08/23 13:15:58;;;;;;;;;;;34.00;58.20;;;34.85;32.18;98845.63;4963411;28;123920;-80
2023/08/23 13:18:24;;;;;;;;;;;34.20;58.20;;;35.04;31.84;98841.50;4953767;28;119193;-80
2023/08/23 13:20:56;;;;;;;;;;;34.30;57.70;;;35.20;31.79;98846.13;4964753;28;120217;-80
2023/08/23 13:23:30;;;;;;;;;;;34.50;57.40;;;35.34;30.84;98845.47;4948234;28;124213;-79
2023/08/23 13:26:08;;;;;;;;;;;34.60;57.10;;;35.45;31.09;98844.97;4968613;28;123916;-79
2023/08/23 13:29:00;;;;;;;;;;;34.70;56.70;;;35.48;31.10;98838.25;4986107;28;118459;-79
2023/08/23 13:31:35;;;;;;;;;;;34.90;56.30;;;35.53;30.64;98840.50;4966814;28;118808;-79
2023/08/23 13:38:01;;;;;;;;;;;34.90;55.70;;;35.59;31.11;98841.44;4995425;28;126846;-79
2023/08/23 13:40:47;;;;;;;;;;;35.00;56.10;;;35.80;30.33;98844.59;4983815;28;119371;-79
2023/08/23 13:43:22;;;;;;;;;;;35.10;55.60;;;35.92;30.42;98837.84;5007896;28;118713;-79
2023/08/23 13:46:02;;;;;;;;;;;35.30;55.40;;;36.01;30.21;98831.25;4989889;28;124404;-80
2023/08/23 13:49:02;;;;;;;;;;;35.30;55.20;;;36.10;29.69;98830.44;4996332;28;124801;-79
2023/08/23 13:51:21;;;;;;;;;;;35.40;54.50;;;36.17;30.18;98838.72;4967531;28;119880;-80
2023/08/23 13:53:50;;;;;;;;;;;35.50;54.60;;;36.23;29.64;98828.13;4968639;28;118007;-80
2023/08/23 13:56:16;;;;;;;;;;;35.60;54.30;;;36.23;29.91;98831.03;4970440;28;124535;-79
2023/08/23 13:58:48;;;;;;;;;;;35.70;54.10;;;36.21;29.78;98828.63;4981813;28;124599;-79
2023/08/23 14:01:15;;;;;;;;;;;35.70;53.70;;;36.19;29.90;98836.13;4975945;28;120354;-80
2023/08/23 14:03:44;;;;;;;;;;;35.70;53.70;;;36.21;29.66;98827.81;4974332;28;119809;-79
2023/08/23 14:06:16;;;;;;;;;;;35.70;53.40;;;36.20;29.64;98829.13;4974367;28;124430;-79
2023/08/23 14:09:26;;;;;;;;;;;35.80;53.30;;;36.32;29.70;98822.31;4980309;28;124531;-80
2023/08/23 14:12:30;;;;;;;;;;;35.80;53.30;;;36.49;29.60;98806.25;4971473;28;119678;-80
2023/08/23 14:15:01;;;;;;;;;;;35.90;53.30;;;36.70;29.23;98820.81;4987872;28;119771;-80
2023/08/23 14:17:28;;;;;;;;;;;36.10;53.00;;;36.84;28.23;98807.78;4975308;28;123989;-80
2023/08/23 14:20:08;;;;;;;;;;;36.20;52.00;;;36.80;27.98;98804.28;4977269;28;123841;-80